Time;durP1;ratioP1;P1;durP2;ratioP2;P2;SDS_P1;SDS_P2;PMS_P1;PMS_P2;Temp;Humidity;BMP_temperature;BMP_pressure;BME280_temperature;BME280_humidity;BME280_pressure;Samples;Min_cycle;Max_cycle;Signal;HPM_P1;HPM_P2
2023/02/18 00:00:17;;;;;;;194.65;110.75;;;103.30;2227.20;;;;;;4959567;28;20054;-89
2023/02/18 00:02:44;;;;;;;231.52;127.00;;;128.10;2252.80;;;;;;4959676;28;20026;-88
2023/02/18 00:05:10;;;;;;;135.48;81.22;;;128.10;2252.80;;;;;;4959641;28;20463;-90
2023/02/18 00:07:37;;;;;;;128.20;76.30;;;103.00;2227.20;;;;;;4959593;28;20490;-89
2023/02/18 00:10:06;;;;;;;142.95;85.15;;;103.10;2227.20;;;;;;4959752;28;20027;-88
2023/02/18 00:12:32;;;;;;;117.65;73.60;;;103.30;2227.20;;;;;;4959194;28;20053;-90
2023/02/18 00:14:58;;;;;;;108.18;65.82;;;128.00;2252.80;;;;;;4959648;28;20471;-90
2023/02/18 00:17:24;;;;;;;115.82;71.80;;;128.20;2252.80;;;;;;4959258;28;20073;-89
2023/02/18 00:19:50;;;;;;;105.05;62.70;;;128.20;2252.80;;;;;;4959187;28;20026;-90
2023/02/18 00:22:16;;;;;;;150.15;89.45;;;128.20;2252.80;;;;;;4959313;28;20098;-88
2023/02/18 00:24:42;;;;;;;151.32;91.07;;;128.20;2252.80;;;;;;4959089;28;20490;-88
2023/02/18 00:27:08;;;;;;;140.55;87.15;;;128.40;2252.80;;;;;;4959183;28;20463;-88
2023/02/18 00:29:34;;;;;;;125.70;77.70;;;128.30;2252.80;;;;;;4959195;28;20081;-89
2023/02/18 00:32:00;;;;;;;116.38;70.43;;;103.30;2227.20;;;;;;4967141;28;20023;-90
2023/02/18 00:34:26;;;;;;;98.28;62.28;;;103.30;2227.20;;;;;;4979147;28;20037;-87
2023/02/18 00:36:52;;;;;;;98.57;61.97;;;103.30;2227.20;;;;;;4964897;28;20062;-89
2023/02/18 00:39:18;;;;;;;119.07;73.68;;;128.00;2252.80;;;;;;4958924;28;20030;-89
2023/02/18 00:41:43;;;;;;;134.57;78.95;;;103.30;2227.20;;;;;;4958742;28;20027;-88
2023/02/18 00:44:10;;;;;;;149.68;88.80;;;103.30;2227.20;;;;;;4958923;28;20027;-87
2023/02/18 00:46:36;;;;;;;138.00;85.40;;;103.30;2227.20;;;;;;4959010;28;20122;-88
2023/02/18 00:49:03;;;;;;;149.98;91.40;;;103.30;2227.20;;;;;;4957798;28;20151;-88
2023/02/18 00:51:29;;;;;;;148.13;90.25;;;103.00;2227.20;;;;;;4958420;28;20042;-88
2023/02/18 00:53:55;;;;;;;165.45;94.60;;;102.90;2227.20;;;;;;4958599;28;20030;-87
2023/02/18 00:56:24;;;;;;;143.57;87.22;;;102.70;2227.20;;;;;;4927060;28;20041;-88
2023/02/18 01:01:36;;;;;;;139.52;85.90;;;102.80;2227.20;;;;;;4976029;28;20033;-87
2023/02/18 01:04:02;;;;;;;149.82;92.57;;;103.00;2227.20;;;;;;4942921;28;20101;-87
2023/02/18 01:06:28;;;;;;;144.75;84.88;;;102.90;2227.20;;;;;;4958267;28;20030;-87
2023/02/18 01:08:54;;;;;;;146.90;84.95;;;103.00;2227.20;;;;;;4958253;28;20023;-86
2023/02/18 01:11:20;;;;;;;193.60;101.45;;;103.10;2227.20;;;;;;4958339;28;20034;-87
2023/02/18 01:13:46;;;;;;;184.38;103.40;;;103.20;2227.20;;;;;;4958507;28;20054;-88
2023/02/18 01:16:12;;;;;;;133.48;74.03;;;103.10;2227.20;;;;;;4958059;28;20117;-87
2023/02/18 01:18:38;;;;;;;83.68;49.60;;;103.00;2227.20;;;;;;4958394;28;20530;-87
2023/02/18 01:21:07;;;;;;;88.07;57.10;;;102.90;2227.20;;;;;;4958143;28;20062;-87
2023/02/18 01:23:34;;;;;;;101.57;60.63;;;102.80;2227.20;;;;;;4957790;28;20046;-88
2023/02/18 01:25:59;;;;;;;110.95;66.35;;;102.90;2227.20;;;;;;4961556;28;20029;-86
2023/02/18 01:28:25;;;;;;;108.43;63.92;;;103.00;2227.20;;;;;;4987905;28;20035;-85
2023/02/18 01:30:52;;;;;;;98.60;61.58;;;103.00;2227.20;;;;;;4976031;28;20023;-87
2023/02/18 01:33:19;;;;;;;96.38;60.95;;;103.30;2227.20;;;;;;4979603;28;20015;-88
2023/02/18 01:35:45;;;;;;;102.53;59.67;;;102.80;2227.20;;;;;;4977147;28;20053;-87
2023/02/18 01:38:12;;;;;;;97.10;59.03;;;102.60;2227.20;;;;;;4957867;28;20482;-87
2023/02/18 01:40:52;;;;;;;99.93;58.78;;;77.70;2227.20;;;;;;4975332;28;20022;-86
2023/02/18 01:43:21;;;;;;;98.65;60.40;;;102.60;2227.20;;;;;;4973580;28;20039;-86
2023/02/18 01:46:04;;;;;;;112.03;64.68;;;102.70;2227.20;;;;;;4975072;28;20043;-87
2023/02/18 01:48:33;;;;;;;84.63;49.45;;;102.80;2227.20;;;;;;4957707;28;20546;-87
2023/02/18 01:51:16;;;;;;;143.82;81.13;;;102.60;2227.20;;;;;;4957519;28;20026;-87
2023/02/18 01:54:09;;;;;;;145.52;83.82;;;102.50;2227.20;;;;;;4957888;28;20114;-87
2023/02/18 01:56:43;;;;;;;155.45;85.13;;;102.50;2227.20;;;;;;4957545;28;20034;-86
2023/02/18 01:59:16;;;;;;;123.32;70.97;;;102.60;2227.20;;;;;;4958159;28;20090;-88
2023/02/18 02:01:45;;;;;;;96.47;57.17;;;102.50;2227.20;;;;;;4943822;29;20114;-86
2023/02/18 02:04:12;;;;;;;76.35;46.75;;;102.50;2227.20;;;;;;4957194;29;20023;-86
2023/02/18 02:53:52;;;;;;;109.65;59.92;;;102.60;2227.20;;;;;;4959465;29;20050;-84
2023/02/18 03:55:42;;;;;;;200.77;96.47;;;77.40;2227.20;;;;;;4950430;28;20085;-82
2023/02/18 04:05:35;;;;;;;81.18;47.95;;;77.10;2227.20;;;;;;4971810;28;20111;-83
2023/02/18 04:09:12;;;;;;;84.35;49.25;;;76.90;2227.20;;;;;;4968433;29;20055;-83
2023/02/18 04:12:05;;;;;;;72.22;46.00;;;77.10;2227.20;;;;;;4937033;29;20039;-83
2023/02/18 04:14:54;;;;;;;72.40;44.50;;;77.20;2227.20;;;;;;4935807;29;20097;-82
2023/02/18 04:18:32;;;;;;;80.25;47.67;;;77.30;2227.20;;;;;;4968878;29;20032;-82
2023/02/18 04:22:02;;;;;;;70.75;43.50;;;77.30;2227.20;;;;;;4847224;29;20033;-82
2023/02/18 04:25:09;;;;;;;63.38;39.92;;;77.50;2227.20;;;;;;4903775;29;20032;-83
2023/02/18 04:28:10;;;;;;;65.82;40.50;;;77.60;2227.20;;;;;;4929729;29;20065;-83
2023/02/18 04:30:52;;;;;;;95.82;52.53;;;77.60;2227.20;;;;;;4945344;29;20398;-85
2023/02/18 04:33:49;;;;;;;72.20;44.40;;;77.60;2227.20;;;;;;4955187;29;20111;-83
2023/02/18 04:37:04;;;;;;;87.07;48.25;;;77.50;2227.20;;;;;;4953509;29;20042;-84
2023/02/18 04:39:57;;;;;;;106.47;59.75;;;77.50;2227.20;;;;;;4925453;29;20027;-84
2023/02/18 04:43:14;;;;;;;93.38;52.95;;;77.50;2227.20;;;;;;4922357;29;20035;-84
2023/02/18 04:46:35;;;;;;;100.35;57.00;;;77.50;2227.20;;;;;;4942302;29;20038;-83
2023/02/18 04:49:32;;;;;;;78.22;48.28;;;77.70;2227.20;;;;;;4903806;29;20051;-83
2023/02/18 04:52:40;;;;;;;84.35;49.55;;;77.60;2227.20;;;;;;4942211;29;20039;-83
2023/02/18 04:56:11;;;;;;;75.22;46.33;;;77.70;2227.20;;;;;;4950867;28;20051;-83
2023/02/18 04:59:29;;;;;;;78.90;47.83;;;77.70;2227.20;;;;;;4960077;29;20074;-83
2023/02/18 05:03:18;;;;;;;78.05;49.78;;;77.50;2227.20;;;;;;4959960;29;20019;-82
2023/02/18 05:05:52;;;;;;;104.38;60.53;;;77.60;2227.20;;;;;;4959547;29;20031;-83
2023/02/18 05:08:43;;;;;;;96.20;56.95;;;77.70;2227.20;;;;;;4942608;29;20475;-84
2023/02/18 05:11:56;;;;;;;144.68;81.32;;;77.30;2227.20;;;;;;4948187;29;20070;-82
2023/02/18 05:15:16;;;;;;;120.95;70.50;;;77.40;2227.20;;;;;;4962568;29;20447;-83
2023/02/18 05:22:02;;;;;;;84.72;50.83;;;77.60;2227.20;;;;;;4907608;29;20051;-83
2023/02/18 05:24:47;;;;;;;91.32;55.55;;;102.40;2227.20;;;;;;4959187;29;20062;-82
2023/02/18 05:27:38;;;;;;;80.63;50.45;;;102.40;2227.20;;;;;;4943302;29;20046;-84
2023/02/18 05:30:37;;;;;;;85.75;49.20;;;77.40;2227.20;;;;;;4965742;28;20038;-83
2023/02/18 05:33:48;;;;;;;81.47;50.92;;;77.40;2227.20;;;;;;4966119;28;20022;-84
2023/02/18 05:36:45;;;;;;;91.72;54.85;;;77.60;2227.20;;;;;;4960531;28;20166;-84
2023/02/18 05:39:36;;;;;;;96.88;56.35;;;77.70;2227.20;;;;;;4944393;28;20126;-85
2023/02/18 05:42:22;;;;;;;103.57;59.95;;;77.60;2227.20;;;;;;4960302;28;20495;-84
2023/02/18 05:44:55;;;;;;;100.30;59.08;;;77.70;2227.20;;;;;;4952623;28;20074;-83
2023/02/18 05:47:51;;;;;;;115.10;68.15;;;102.50;2227.20;;;;;;4968621;28;20433;-85
2023/02/18 05:50:52;;;;;;;130.02;76.70;;;102.50;2227.20;;;;;;4944676;28;20030;-84
2023/02/18 05:57:13;;;;;;;150.57;85.70;;;102.50;2227.20;;;;;;4928152;29;20038;-85
2023/02/18 07:01:35;;;;;;;100.60;61.97;;;102.80;2227.20;;;;;;4962489;28;20459;-84
2023/02/18 07:05:01;;;;;;;75.55;47.65;;;102.80;2227.20;;;;;;4978415;28;20030;-85
2023/02/18 07:07:47;;;;;;;66.22;42.15;;;103.00;2227.20;;;;;;4977451;28;20034;-87
2023/02/18 07:10:13;;;;;;;84.32;53.00;;;103.20;2227.20;;;;;;4976338;28;20027;-87
2023/02/18 07:12:39;;;;;;;87.03;58.15;;;103.20;2227.20;;;;;;4960178;28;20030;-87
2023/02/18 07:15:05;;;;;;;107.20;66.50;;;103.30;2227.20;;;;;;4976671;28;20035;-86
2023/02/18 07:17:31;;;;;;;140.02;90.22;;;128.00;2252.80;;;;;;4976779;28;20023;-86
2023/02/18 07:19:57;;;;;;;199.23;129.82;;;128.00;2252.80;;;;;;4976436;28;20041;-87
2023/02/18 07:22:24;;;;;;;131.63;92.70;;;128.00;2252.80;;;;;;4976709;28;20078;-86
2023/02/18 07:24:52;;;;;;;121.68;79.85;;;103.30;2227.20;;;;;;4960548;28;20027;-87
2023/02/18 07:27:20;;;;;;;129.07;84.90;;;128.00;2252.80;;;;;;4976419;28;20046;-85
2023/02/18 07:29:46;;;;;;;160.63;108.40;;;128.10;2252.80;;;;;;4984618;28;20031;-87
2023/02/18 07:32:14;;;;;;;170.30;109.43;;;128.20;2252.80;;;;;;4991413;28;20030;-89
2023/02/18 07:34:39;;;;;;;223.63;143.20;;;128.30;2252.80;;;;;;4976475;28;20058;-86
2023/02/18 07:37:08;;;;;;;248.15;160.43;;;128.40;2252.80;;;;;;4976045;28;20467;-87
2023/02/18 07:39:39;;;;;;;244.93;163.57;;;128.40;2252.80;;;;;;4976066;28;20046;-86
2023/02/18 07:42:05;;;;;;;214.32;141.07;;;128.60;2252.80;;;;;;4976303;28;20030;-87
2023/02/18 07:44:31;;;;;;;151.20;97.93;;;128.70;2252.80;;;;;;4976033;28;20070;-87
2023/02/18 07:46:57;;;;;;;157.73;107.40;;;128.50;2252.80;;;;;;4977854;28;20102;-86
2023/02/18 07:49:23;;;;;;;174.00;116.85;;;128.50;2252.80;;;;;;5000064;28;20042;-85
2023/02/18 07:51:49;;;;;;;173.80;109.97;;;128.70;2252.80;;;;;;5000106;28;20015;-86
2023/02/18 07:54:17;;;;;;;200.85;123.75;;;128.90;2252.80;;;;;;4976695;28;20118;-87
2023/02/18 07:56:43;;;;;;;159.05;106.60;;;128.90;2252.80;;;;;;4975727;28;20034;-87
2023/02/18 07:59:10;;;;;;;151.43;98.00;;;153.60;2252.80;;;;;;4975292;28;20034;-87
2023/02/18 08:01:36;;;;;;;135.25;88.70;;;153.60;2252.80;;;;;;4975570;28;20026;-86
2023/02/18 08:04:01;;;;;;;130.32;87.40;;;153.80;2252.80;;;;;;4975846;28;20529;-87
2023/02/18 08:06:32;;;;;;;133.00;86.07;;;153.90;2252.80;;;;;;4975641;28;20031;-88
2023/02/18 08:08:58;;;;;;;114.57;77.50;;;154.10;2252.80;;;;;;4975612;28;20386;-89
2023/02/18 08:11:24;;;;;;;97.80;69.07;;;154.30;2252.80;;;;;;4975317;28;20042;-89
2023/02/18 08:13:50;;;;;;;103.15;71.15;;;154.40;2252.80;;;;;;4975883;28;20431;-87
2023/02/18 08:16:18;;;;;;;96.70;69.85;;;179.20;2252.80;;;;;;4975246;28;20058;-88
2023/02/18 08:18:46;;;;;;;112.07;78.82;;;179.40;2252.80;;;;;;4975499;28;20125;-88
2023/02/18 08:21:12;;;;;;;113.38;78.38;;;179.50;2252.80;;;;;;4975389;28;20022;-87
2023/02/18 08:23:38;;;;;;;104.38;72.60;;;179.70;2252.80;;;;;;4975037;28;20029;-89
2023/02/18 08:26:04;;;;;;;111.78;76.70;;;179.80;2252.80;;;;;;4975199;28;20026;-88
2023/02/18 08:28:30;;;;;;;108.85;75.68;;;180.00;2252.80;;;;;;4975150;28;20122;-88
2023/02/18 08:30:57;;;;;;;90.80;63.70;;;180.10;2252.80;;;;;;4974889;28;20121;-87
2023/02/18 08:33:23;;;;;;;84.78;61.60;;;204.90;2252.80;;;;;;4975269;28;20457;-87
2023/02/18 08:35:51;;;;;;;84.28;57.38;;;230.50;2252.80;;;;;;4974857;28;20027;-87
2023/02/18 08:38:18;;;;;;;72.43;50.13;;;205.10;2252.80;;;;;;4974960;28;20038;-88
2023/02/18 08:40:44;;;;;;;67.07;45.80;;;205.20;2252.80;;;;;;4975243;28;20081;-87
2023/02/18 08:43:09;;;;;;;63.15;43.33;;;205.30;2252.80;;;;;;4974774;28;20027;-87
2023/02/18 08:45:39;;;;;;;65.40;42.20;;;205.40;2252.80;;;;;;4975142;28;20038;-88
2023/02/18 08:48:06;;;;;;;55.03;37.40;;;205.50;2252.80;;;;;;4974812;28;20030;-87
2023/02/18 08:50:33;;;;;;;55.72;36.30;;;205.60;2252.80;;;;;;4976062;28;20122;-89
2023/02/18 08:53:02;;;;;;;68.22;43.58;;;230.40;2252.80;;;;;;4958698;28;20023;-87
2023/02/18 08:55:28;;;;;;;91.70;58.30;;;205.70;2252.80;;;;;;4959100;28;20542;-88
2023/02/18 08:57:54;;;;;;;102.40;68.50;;;230.40;2252.80;;;;;;4958681;28;20026;-89
2023/02/18 09:00:20;;;;;;;105.60;72.35;;;230.40;2252.80;;;;;;4959031;28;20494;-88
2023/02/18 09:02:46;;;;;;;99.68;66.32;;;230.50;2252.80;;;;;;4958865;28;20402;-90
2023/02/18 09:05:13;;;;;;;101.10;70.45;;;230.60;2252.80;;;;;;4959027;28;20031;-93
2023/02/18 09:07:39;;;;;;;105.88;68.82;;;230.50;2252.80;;;;;;4959195;28;20062;-90
2023/02/18 09:10:07;;;;;;;97.15;63.00;;;230.80;2252.80;;;;;;4958346;28;20098;-90
2023/02/18 09:12:33;;;;;;;103.82;73.40;;;230.80;2252.80;;;;;;4958780;28;20034;-92
2023/02/18 09:14:59;;;;;;;102.50;71.00;;;230.90;2252.80;;;;;;4958800;28;20027;-93
2023/02/18 09:17:26;;;;;;;82.32;56.03;;;230.90;2252.80;;;;;;4959000;28;20054;-90
2023/02/18 09:19:51;;;;;;;71.38;48.65;;;231.00;2252.80;;;;;;4958908;28;20031;-92
2023/02/18 09:22:18;;;;;;;76.22;52.40;;;231.00;2252.80;;;;;;4959060;28;20031;-93
2023/02/18 09:24:43;;;;;;;80.53;53.28;;;231.10;2252.80;;;;;;4959071;28;20082;-92
2023/02/18 09:27:09;;;;;;;56.92;38.45;;;231.20;2252.80;;;;;;4958816;28;20426;-91
2023/02/18 09:29:37;;;;;;;77.25;41.53;;;231.30;2252.80;;;;;;4958526;28;20034;-89
2023/02/18 09:32:04;;;;;;;60.00;39.28;;;256.10;2252.80;;;;;;4958402;28;20031;-89
2023/02/18 09:34:31;;;;;;;57.05;38.35;;;256.20;2252.80;;;;;;4958213;28;20435;-89
2023/02/18 09:36:56;;;;;;;44.40;31.00;;;256.20;2252.80;;;;;;4958632;28;20026;-89
2023/02/18 09:39:22;;;;;;;42.60;28.33;;;256.30;2252.80;;;;;;4958433;28;20106;-90
2023/02/18 09:41:58;;;;;;;38.78;27.08;;;256.40;2252.80;;;;;;4958257;28;20177;-90
2023/02/18 09:44:45;;;;;;;37.70;26.98;;;256.50;2252.80;;;;;;4958600;28;20081;-88
2023/02/18 09:47:18;;;;;;;37.90;25.95;;;256.60;2252.80;;;;;;4975104;28;20026;-90
2023/02/18 09:49:48;;;;;;;31.83;21.73;;;256.70;2252.80;;;;;;4970945;28;20518;-89
2023/02/18 09:52:32;;;;;;;33.22;22.13;;;256.90;2252.80;;;;;;4975715;28;20062;-88
2023/02/18 09:54:59;;;;;;;31.40;22.30;;;281.60;2278.40;;;;;;4977951;28;20027;-88
2023/02/18 09:57:27;;;;;;;38.97;28.05;;;281.80;2278.40;;;;;;4977135;28;20030;-88
2023/02/18 10:00:07;;;;;;;35.67;25.75;;;281.80;2278.40;;;;;;4973406;28;20546;-87
2023/02/18 10:02:34;;;;;;;36.50;25.45;;;281.80;2278.40;;;;;;4973939;28;20035;-88
2023/02/18 10:05:01;;;;;;;35.53;24.15;;;281.90;2278.40;;;;;;4973968;28;20127;-88
2023/02/18 10:07:30;;;;;;;27.33;19.58;;;281.80;2278.40;;;;;;4974262;28;20085;-89
2023/02/18 10:10:00;;;;;;;31.58;22.75;;;281.80;2278.40;;;;;;4974547;28;20042;-88
2023/02/18 10:12:26;;;;;;;36.75;27.27;;;281.90;2278.40;;;;;;4975285;28;20031;-89
2023/02/18 10:14:58;;;;;;;36.42;27.23;;;282.00;2278.40;;;;;;4974178;28;20031;-88
2023/02/18 10:17:27;;;;;;;27.30;18.87;;;282.10;2278.40;;;;;;4974017;28;20027;-89
2023/02/18 10:19:55;;;;;;;25.75;16.67;;;282.20;2278.40;;;;;;4974403;28;20292;-90
2023/02/18 10:22:24;;;;;;;25.67;17.13;;;282.40;2278.40;;;;;;4977938;28;20042;-88
2023/02/18 10:24:56;;;;;;;22.70;16.90;;;307.20;2304.00;;;;;;4977831;28;20418;-89
2023/02/18 10:27:24;;;;;;;;;;;307.20;2304.00;;;;;;4978111;28;20026;-88
2023/02/18 10:29:50;;;;;;;23.25;17.27;;;307.40;2304.00;;;;;;4978208;28;19906;-88
2023/02/18 10:32:23;;;;;;;22.88;16.65;;;307.40;2304.00;;;;;;4978132;28;20048;-88
2023/02/18 10:35:14;;;;;;;26.15;19.38;;;307.50;2304.00;;;;;;4977215;28;20053;-88
2023/02/18 10:37:46;;;;;;;22.98;17.88;;;307.70;2304.00;;;;;;4975810;28;20031;-86
2023/02/18 10:40:37;;;;;;;24.92;17.92;;;307.70;2304.00;;;;;;4976933;28;20125;-86
2023/02/18 10:43:15;;;;;;;23.75;16.27;;;307.90;2304.00;;;;;;4976866;28;20030;-86
2023/02/18 10:46:11;;;;;;;25.00;16.17;;;308.10;2304.00;;;;;;4977821;28;20105;-86
2023/02/18 10:48:52;;;;;;;24.50;16.50;;;332.80;2329.60;;;;;;4950613;29;20560;-83
2023/02/18 10:51:25;;;;;;;24.73;16.58;;;308.10;2304.00;;;;;;4957346;29;20483;-85
2023/02/18 10:53:52;;;;;;;19.15;14.75;;;308.10;2304.00;;;;;;4957502;29;20490;-84
2023/02/18 10:56:37;;;;;;;21.13;14.52;;;332.80;2329.60;;;;;;4974863;28;20030;-82
2023/02/18 10:59:29;;;;;;;17.77;13.05;;;332.80;2329.60;;;;;;4976503;28;20030;-83
2023/02/18 11:02:17;;;;;;;18.10;13.48;;;332.90;2329.60;;;;;;4976373;28;20035;-83
2023/02/18 11:04:44;;;;;;;19.42;13.85;;;333.10;2329.60;;;;;;4962997;28;20027;-83
2023/02/18 11:07:27;;;;;;;16.80;12.10;;;333.10;2329.60;;;;;;4976345;28;20433;-82
2023/02/18 11:09:56;;;;;;;22.10;13.82;;;333.10;2329.60;;;;;;4975910;28;20053;-84
2023/02/18 11:12:24;;;;;;;15.35;11.65;;;333.20;2329.60;;;;;;4976090;28;20034;-81
2023/02/18 11:15:22;;;;;;;19.52;13.15;;;333.30;2329.60;;;;;;4976117;28;20031;-85
2023/02/18 11:17:51;;;;;;;17.88;12.23;;;333.30;2329.60;;;;;;4976024;28;20031;-83
2023/02/18 11:20:35;;;;;;;16.08;11.45;;;333.50;2329.60;;;;;;4975932;28;20081;-83
2023/02/18 11:23:06;;;;;;;35.25;23.30;;;333.70;2329.60;;;;;;4977071;28;20058;-81
2023/02/18 11:25:34;;;;;;;25.05;16.63;;;358.40;2329.60;;;;;;4975493;28;20027;-83
2023/02/18 11:28:29;;;;;;;19.77;14.30;;;358.50;2329.60;;;;;;4975699;28;20037;-83
2023/02/18 11:31:01;;;;;;;28.70;15.07;;;358.60;2329.60;;;;;;4963377;28;20035;-81
2023/02/18 11:33:37;;;;;;;16.83;13.05;;;358.50;2329.60;;;;;;4975054;28;20034;-82
2023/02/18 11:36:34;;;;;;;21.23;12.68;;;358.50;2329.60;;;;;;4975446;28;20037;-83
2023/02/18 11:39:27;;;;;;;22.67;15.05;;;358.70;2304.00;;;;;;4963448;28;20058;-83
2023/02/18 11:41:57;;;;;;;21.25;14.10;;;359.00;2252.80;;;;;;4967394;28;20130;-82
2023/02/18 11:44:34;;;;;;;19.60;12.73;;;359.20;2227.20;;;;;;4975066;28;20356;-81
2023/02/18 11:47:02;;;;;;;17.00;13.07;;;384.00;2201.60;;;;;;4976598;28;20025;-81
2023/02/18 11:49:29;;;;;;;25.90;15.45;;;359.30;2176.00;;;;;;4974671;28;20051;-82
2023/02/18 11:52:02;;;;;;;18.33;12.60;;;384.10;2150.40;;;;;;4974639;28;20082;-81
2023/02/18 11:54:30;;;;;;;18.48;9.60;;;384.30;2176.00;;;;;;4974718;28;20045;-81
2023/02/18 11:57:03;;;;;;;18.63;10.30;;;384.40;2150.40;;;;;;4976029;28;20030;-83
2023/02/18 11:59:36;;;;;;;14.80;9.73;;;384.40;2124.80;;;;;;4974807;28;20500;-85
2023/02/18 12:02:02;;;;;;;;;;;;;;;;;;4975847;28;20031;-82
2023/02/18 12:04:39;;;;;;;20.70;11.35;;;409.90;2124.80;;;;;;4975244;28;20260;-84
2023/02/18 12:07:05;;;;;;;17.55;11.73;;;;;;;;;;4975066;28;20037;-84
2023/02/18 12:09:36;;;;;;;14.50;10.27;;;435.20;2099.20;;;;;;4976137;28;20105;-83
2023/02/18 12:12:32;;;;;;;14.32;8.52;;;435.30;2073.60;;;;;;4976437;28;20031;-83
2023/02/18 12:14:59;;;;;;;17.20;10.98;;;435.30;2048.00;;;;;;4971790;28;20504;-83
2023/02/18 12:17:52;;;;;;;22.17;14.07;;;410.50;2048.00;;;;;;4975042;28;20026;-85
2023/02/18 12:20:35;;;;;;;15.27;9.35;;;410.50;2022.40;;;;;;4975302;28;20031;-84
2023/02/18 12:23:17;;;;;;;13.55;9.25;;;410.20;2048.00;;;;;;4975321;28;20026;-85
2023/02/18 12:26:05;;;;;;;11.90;8.90;;;410.00;2048.00;;;;;;4975197;28;20030;-84
2023/02/18 12:28:50;;;;;;;16.25;11.13;;;410.00;2048.00;;;;;;4974905;28;20042;-83
2023/02/18 12:31:31;;;;;;;11.30;8.93;;;410.30;2048.00;;;;;;4976397;28;20042;-83
2023/02/18 12:34:22;;;;;;;13.88;10.48;;;435.20;2022.40;;;;;;4974625;28;20065;-85
2023/02/18 12:37:00;;;;;;;18.52;10.45;;;435.30;2022.40;;;;;;4975748;28;20402;-84
2023/02/18 12:39:37;;;;;;;12.57;9.82;;;435.30;2048.00;;;;;;4974480;28;20026;-84
2023/02/18 12:42:36;;;;;;;13.00;10.13;;;410.40;2048.00;;;;;;4975442;28;20101;-85
2023/02/18 12:45:20;;;;;;;16.08;11.02;;;410.30;2073.60;;;;;;4973904;28;20478;-84
2023/02/18 12:48:06;;;;;;;39.70;26.10;;;410.00;2073.60;;;;;;4975255;28;20035;-85
2023/02/18 12:51:03;;;;;;;31.50;21.42;;;410.00;2073.60;;;;;;4958569;28;20030;-84
2023/02/18 12:53:53;;;;;;;21.63;15.45;;;410.00;2073.60;;;;;;4974284;28;20038;-84
2023/02/18 12:56:32;;;;;;;34.78;26.10;;;410.00;2099.20;;;;;;4958269;28;20026;-85
2023/02/18 12:59:42;;;;;;;38.65;28.25;;;409.80;2099.20;;;;;;4959849;28;20034;-85
2023/02/18 13:02:11;;;;;;;28.95;21.98;;;409.70;2124.80;;;;;;4899201;28;20039;-84
2023/02/18 13:05:08;;;;;;;23.40;18.40;;;409.70;2124.80;;;;;;4957660;28;20077;-84
2023/02/18 13:07:34;;;;;;;24.95;18.38;;;409.60;2124.80;;;;;;4958414;28;20027;-84
2023/02/18 13:10:19;;;;;;;18.88;13.35;;;409.60;2124.80;;;;;;4954795;28;20093;-84
2023/02/18 13:12:50;;;;;;;21.92;15.63;;;409.60;2124.80;;;;;;4957250;28;20031;-84
2023/02/18 13:15:16;;;;;;;47.58;37.72;;;409.90;2099.20;;;;;;4956807;28;20086;-85
2023/02/18 13:17:43;;;;;;;41.42;33.40;;;410.10;2124.80;;;;;;4957793;28;20058;-85
2023/02/18 13:20:21;;;;;;;28.67;22.67;;;410.30;2099.20;;;;;;4958062;28;20027;-85
2023/02/18 13:22:49;;;;;;;24.10;18.33;;;410.50;2073.60;;;;;;4957961;28;20033;-84
2023/02/18 13:25:17;;;;;;;28.63;20.52;;;435.20;2073.60;;;;;;4975349;28;20023;-84
2023/02/18 13:28:08;;;;;;;30.58;20.77;;;435.20;2073.60;;;;;;4958137;28;20034;-85
2023/02/18 13:31:04;;;;;;;24.00;18.27;;;435.30;2073.60;;;;;;4957681;28;20110;-85
2023/02/18 13:33:49;;;;;;;27.55;18.60;;;435.60;2176.00;;;;;;4974421;28;20027;-85
2023/02/18 13:36:15;;;;;;;46.30;31.25;;;435.70;2048.00;;;;;;4956451;28;20057;-84
2023/02/18 13:38:47;;;;;;;39.50;28.20;;;435.90;2048.00;;;;;;4973893;28;20406;-85
2023/02/18 13:41:13;;;;;;;30.58;22.40;;;435.90;2022.40;;;;;;4958373;28;20167;-84
2023/02/18 13:43:39;;;;;;;45.95;35.15;;;436.00;2022.40;;;;;;4975071;28;20027;-83
2023/02/18 13:46:46;;;;;;;42.83;32.97;;;460.80;2022.40;;;;;;4958116;28;20407;-85
2023/02/18 13:49:12;;;;;;;35.38;25.40;;;460.90;2022.40;;;;;;4953688;28;20109;-84
2023/02/18 13:51:47;;;;;;;24.48;18.52;;;460.90;2022.40;;;;;;4973567;28;20027;-84
2023/02/18 13:54:18;;;;;;;26.60;19.15;;;461.00;2022.40;;;;;;4974015;28;20442;-83
2023/02/18 13:57:01;;;;;;;19.27;15.15;;;460.90;1996.80;;;;;;4978003;28;20037;-85
2023/02/18 13:59:39;;;;;;;22.00;15.73;;;460.90;1996.80;;;;;;4977454;28;20050;-85
2023/02/18 14:02:28;;;;;;;21.38;16.52;;;460.90;1996.80;;;;;;4977878;28;20055;-84
2023/02/18 14:04:57;;;;;;;17.80;14.10;;;460.90;2022.40;;;;;;4977861;28;20062;-84
2023/02/18 14:07:35;;;;;;;22.10;15.60;;;461.00;1996.80;;;;;;4978694;28;20023;-85
2023/02/18 14:10:31;;;;;;;28.65;23.35;;;461.00;1996.80;;;;;;4978737;28;20030;-87
2023/02/18 14:12:57;;;;;;;34.05;25.65;;;460.90;2022.40;;;;;;4975849;28;20039;-85
2023/02/18 14:15:23;;;;;;;26.63;22.17;;;460.80;2022.40;;;;;;4979009;28;20443;-86
2023/02/18 14:17:57;;;;;;;24.60;17.33;;;436.10;1996.80;;;;;;4977603;28;20027;-85
2023/02/18 14:20:38;;;;;;;27.63;19.80;;;436.10;1971.20;;;;;;4977467;28;20034;-85
2023/02/18 14:23:19;;;;;;;23.50;19.48;;;435.80;1996.80;;;;;;4978692;28;20058;-85
2023/02/18 14:25:54;;;;;;;20.80;18.00;;;435.60;1996.80;;;;;;4977503;28;20038;-86
2023/02/18 14:28:37;;;;;;;33.30;25.20;;;435.50;2022.40;;;;;;4977645;28;20031;-86
2023/02/18 14:31:12;;;;;;;37.40;23.20;;;435.30;2048.00;;;;;;4977772;28;20027;-86
2023/02/18 14:33:59;;;;;;;44.78;24.55;;;435.20;2048.00;;;;;;4976983;28;20041;-85
2023/02/18 14:36:32;;;;;;;36.38;22.67;;;410.50;2048.00;;;;;;4977781;28;20080;-87
2023/02/18 14:39:35;;;;;;;25.92;18.17;;;410.40;2073.60;;;;;;4978279;28;20070;-87
2023/02/18 14:42:17;;;;;;;25.55;18.13;;;410.40;2048.00;;;;;;4978542;28;20463;-87
2023/02/18 14:44:58;;;;;;;26.38;19.38;;;410.20;2073.60;;;;;;4978033;28;20050;-87
2023/02/18 14:48:02;;;;;;;41.22;28.60;;;410.10;2099.20;;;;;;4977299;28;20058;-86
2023/02/18 14:50:35;;;;;;;28.33;21.17;;;410.00;2099.20;;;;;;4959664;28;20156;-86
2023/02/18 14:53:17;;;;;;;34.45;25.13;;;409.90;2099.20;;;;;;4976599;29;20047;-86
2023/02/18 14:55:46;;;;;;;44.45;32.65;;;409.80;2124.80;;;;;;4975716;29;20471;-85
2023/02/18 14:58:29;;;;;;;37.22;30.75;;;409.80;2150.40;;;;;;4942652;29;20039;-87
2023/02/18 15:00:55;;;;;;;39.60;30.80;;;409.70;2150.40;;;;;;4941483;29;20035;-86
2023/02/18 15:03:21;;;;;;;39.53;30.45;;;409.70;2150.40;;;;;;4941715;29;20028;-85
2023/02/18 15:05:50;;;;;;;40.05;29.38;;;409.70;2150.40;;;;;;4941765;29;20027;-86
2023/02/18 15:08:17;;;;;;;44.08;32.50;;;409.60;2176.00;;;;;;4940597;29;20039;-86
2023/02/18 15:10:44;;;;;;;46.85;34.28;;;384.90;2150.40;;;;;;4941381;29;20031;-86
2023/02/18 15:13:17;;;;;;;48.28;34.60;;;384.90;2176.00;;;;;;4958323;29;20066;-86
2023/02/18 15:15:46;;;;;;;47.20;35.65;;;384.80;2150.40;;;;;;4941368;29;20024;-82
2023/02/18 15:18:24;;;;;;;46.90;34.92;;;384.70;2176.00;;;;;;4940700;29;20031;-86
2023/02/18 15:20:50;;;;;;;54.22;38.35;;;384.60;2176.00;;;;;;4941656;29;20034;-86
2023/02/18 15:23:16;;;;;;;68.70;50.10;;;384.40;2227.20;;;;;;4941651;29;20031;-89
2023/02/18 15:25:49;;;;;;;79.57;54.85;;;384.30;2227.20;;;;;;4941462;29;20031;-86
2023/02/18 15:28:27;;;;;;;69.13;51.28;;;384.30;2252.80;;;;;;4941646;29;20035;-87
2023/02/18 15:30:55;;;;;;;85.78;60.13;;;384.30;2227.20;;;;;;4941775;29;20135;-88
2023/02/18 15:33:22;;;;;;;73.85;55.78;;;384.20;2227.20;;;;;;4941095;29;20109;-85
2023/02/18 15:35:49;;;;;;;72.85;54.20;;;;;;;;;;4941304;29;20031;-86
2023/02/18 15:38:19;;;;;;;67.88;50.95;;;384.10;2252.80;;;;;;4941148;29;20031;-86
2023/02/18 15:40:53;;;;;;;73.10;51.33;;;359.30;2252.80;;;;;;4941271;29;20443;-87
2023/02/18 15:43:25;;;;;;;94.32;59.20;;;359.20;2278.40;;;;;;4958116;29;20035;-87
2023/02/18 15:45:53;;;;;;;60.10;41.93;;;;;;;;;;4941090;29;20467;-86
2023/02/18 15:48:23;;;;;;;55.75;41.92;;;;;;;;;;4946597;28;20058;-86
2023/02/18 15:50:51;;;;;;;59.80;42.10;;;;;;;;;;4976648;28;20023;-89